sensor_id;sensor_type;location;lat;lon;timestamp;temperature;humidity
68480;DHT22;55469;48.934;12.050;2023-03-26T00:00:43;11.10;90.30
68480;DHT22;55469;48.934;12.050;2023-03-26T00:03:10;11.10;90.50
68480;DHT22;55469;48.934;12.050;2023-03-26T00:05:37;11.10;90.40
68480;DHT22;55469;48.934;12.050;2023-03-26T00:08:03;11.10;90.40
68480;DHT22;55469;48.934;12.050;2023-03-26T00:10:30;11.10;90.40
68480;DHT22;55469;48.934;12.050;2023-03-26T00:12:55;11.10;90.20
68480;DHT22;55469;48.934;12.050;2023-03-26T00:15:21;11.10;90.20
68480;DHT22;55469;48.934;12.050;2023-03-26T00:17:47;11.10;90.20
68480;DHT22;55469;48.934;12.050;2023-03-26T00:20:13;11.10;90.20
68480;DHT22;55469;48.934;12.050;2023-03-26T00:22:40;11.00;90.10
68480;DHT22;55469;48.934;12.050;2023-03-26T00:25:06;11.00;90.00
68480;DHT22;55469;48.934;12.050;2023-03-26T00:27:33;11.10;90.20
68480;DHT22;55469;48.934;12.050;2023-03-26T00:29:59;11.00;90.20
68480;DHT22;55469;48.934;12.050;2023-03-26T00:32:27;11.10;90.20
68480;DHT22;55469;48.934;12.050;2023-03-26T00:34:53;11.00;90.20
68480;DHT22;55469;48.934;12.050;2023-03-26T00:37:21;11.00;90.10
68480;DHT22;55469;48.934;12.050;2023-03-26T00:39:54;11.00;90.20
68480;DHT22;55469;48.934;12.050;2023-03-26T00:42:27;11.10;90.20
68480;DHT22;55469;48.934;12.050;2023-03-26T00:44:53;11.00;90.10
68480;DHT22;55469;48.934;12.050;2023-03-26T00:47:22;11.00;90.20
68480;DHT22;55469;48.934;12.050;2023-03-26T00:49:49;11.00;90.20
68480;DHT22;55469;48.934;12.050;2023-03-26T00:52:15;11.00;90.10
68480;DHT22;55469;48.934;12.050;2023-03-26T00:54:44;11.00;90.10
68480;DHT22;55469;48.934;12.050;2023-03-26T00:57:11;11.00;90.20
68480;DHT22;55469;48.934;12.050;2023-03-26T00:59:38;11.00;90.10
68480;DHT22;55469;48.934;12.050;2023-03-26T01:02:05;11.00;90.20
68480;DHT22;55469;48.934;12.050;2023-03-26T01:04:33;10.90;90.20
68480;DHT22;55469;48.934;12.050;2023-03-26T01:07:09;10.90;90.30
68480;DHT22;55469;48.934;12.050;2023-03-26T01:09:42;10.90;90.20
68480;DHT22;55469;48.934;12.050;2023-03-26T01:12:16;10.90;90.20
68480;DHT22;55469;48.934;12.050;2023-03-26T01:14:45;11.00;90.20
68480;DHT22;55469;48.934;12.050;2023-03-26T01:17:12;10.90;90.10
68480;DHT22;55469;48.934;12.050;2023-03-26T01:22:18;10.90;90.20
68480;DHT22;55469;48.934;12.050;2023-03-26T01:24:45;10.90;90.20
68480;DHT22;55469;48.934;12.050;2023-03-26T01:30:23;10.90;90.20
68480;DHT22;55469;48.934;12.050;2023-03-26T01:35:51;10.80;90.20
68480;DHT22;55469;48.934;12.050;2023-03-26T01:44:09;10.80;90.30
68480;DHT22;55469;48.934;12.050;2023-03-26T01:46:41;10.90;90.20
68480;DHT22;55469;48.934;12.050;2023-03-26T01:49:08;10.80;90.20
68480;DHT22;55469;48.934;12.050;2023-03-26T01:51:38;10.80;90.30
68480;DHT22;55469;48.934;12.050;2023-03-26T01:54:09;10.80;90.20
68480;DHT22;55469;48.934;12.050;2023-03-26T02:05:34;10.70;90.30
68480;DHT22;55469;48.934;12.050;2023-03-26T02:10:52;10.70;90.20
68480;DHT22;55469;48.934;12.050;2023-03-26T02:13:22;10.70;90.30
68480;DHT22;55469;48.934;12.050;2023-03-26T02:16:00;10.70;90.40
68480;DHT22;55469;48.934;12.050;2023-03-26T02:18:27;10.70;90.20
68480;DHT22;55469;48.934;12.050;2023-03-26T02:21:16;10.70;90.30
68480;DHT22;55469;48.934;12.050;2023-03-26T02:23:45;10.60;90.30
68480;DHT22;55469;48.934;12.050;2023-03-26T02:26:14;10.60;90.20
68480;DHT22;55469;48.934;12.050;2023-03-26T02:28:41;10.50;90.30
68480;DHT22;55469;48.934;12.050;2023-03-26T02:31:07;10.60;90.30
68480;DHT22;55469;48.934;12.050;2023-03-26T02:33:38;10.60;90.40
68480;DHT22;55469;48.934;12.050;2023-03-26T02:36:04;10.60;90.40
68480;DHT22;55469;48.934;12.050;2023-03-26T02:38:33;10.60;90.40
68480;DHT22;55469;48.934;12.050;2023-03-26T02:41:00;10.60;90.30
68480;DHT22;55469;48.934;12.050;2023-03-26T02:43:26;10.60;90.40
68480;DHT22;55469;48.934;12.050;2023-03-26T02:45:52;10.60;90.40
68480;DHT22;55469;48.934;12.050;2023-03-26T02:48:18;10.60;90.40
68480;DHT22;55469;48.934;12.050;2023-03-26T02:50:45;10.50;90.40
68480;DHT22;55469;48.934;12.050;2023-03-26T02:53:17;10.50;90.50
68480;DHT22;55469;48.934;12.050;2023-03-26T02:55:43;10.50;90.40
68480;DHT22;55469;48.934;12.050;2023-03-26T02:58:09;10.50;90.40
68480;DHT22;55469;48.934;12.050;2023-03-26T03:00:36;10.50;90.50
68480;DHT22;55469;48.934;12.050;2023-03-26T03:03:02;10.50;90.50
68480;DHT22;55469;48.934;12.050;2023-03-26T03:05:32;10.50;90.50
68480;DHT22;55469;48.934;12.050;2023-03-26T03:07:58;10.50;90.50
68480;DHT22;55469;48.934;12.050;2023-03-26T03:10:25;10.40;90.50
68480;DHT22;55469;48.934;12.050;2023-03-26T03:12:52;10.50;90.50
68480;DHT22;55469;48.934;12.050;2023-03-26T03:15:19;10.40;90.50
68480;DHT22;55469;48.934;12.050;2023-03-26T03:17:45;10.40;90.50
68480;DHT22;55469;48.934;12.050;2023-03-26T03:20:11;10.40;90.50
68480;DHT22;55469;48.934;12.050;2023-03-26T03:22:37;10.40;90.50
68480;DHT22;55469;48.934;12.050;2023-03-26T03:25:04;10.40;90.50
68480;DHT22;55469;48.934;12.050;2023-03-26T03:27:33;10.40;90.60
68480;DHT22;55469;48.934;12.050;2023-03-26T03:30:04;10.40;90.50
68480;DHT22;55469;48.934;12.050;2023-03-26T03:32:32;10.40;90.60
68480;DHT22;55469;48.934;12.050;2023-03-26T03:34:58;10.40;90.60
68480;DHT22;55469;48.934;12.050;2023-03-26T03:37:24;10.40;90.60
68480;DHT22;55469;48.934;12.050;2023-03-26T03:39:51;10.40;90.60
68480;DHT22;55469;48.934;12.050;2023-03-26T03:42:17;10.40;90.60
68480;DHT22;55469;48.934;12.050;2023-03-26T03:44:42;10.30;90.60
68480;DHT22;55469;48.934;12.050;2023-03-26T03:47:08;10.30;90.60
68480;DHT22;55469;48.934;12.050;2023-03-26T03:49:40;10.30;90.60
68480;DHT22;55469;48.934;12.050;2023-03-26T03:52:06;10.30;90.60
68480;DHT22;55469;48.934;12.050;2023-03-26T03:54:32;10.30;90.70
68480;DHT22;55469;48.934;12.050;2023-03-26T03:56:58;10.30;90.70
68480;DHT22;55469;48.934;12.050;2023-03-26T03:59:24;10.30;90.70
68480;DHT22;55469;48.934;12.050;2023-03-26T04:01:49;10.30;90.70
68480;DHT22;55469;48.934;12.050;2023-03-26T04:04:16;10.30;90.70
68480;DHT22;55469;48.934;12.050;2023-03-26T04:06:42;10.20;90.70
68480;DHT22;55469;48.934;12.050;2023-03-26T04:09:08;10.20;90.70
68480;DHT22;55469;48.934;12.050;2023-03-26T04:11:36;10.20;90.80
68480;DHT22;55469;48.934;12.050;2023-03-26T04:14:02;10.20;90.80
68480;DHT22;55469;48.934;12.050;2023-03-26T04:16:28;10.20;90.80
68480;DHT22;55469;48.934;12.050;2023-03-26T04:18:53;10.20;90.80
68480;DHT22;55469;48.934;12.050;2023-03-26T04:21:21;10.20;90.80
68480;DHT22;55469;48.934;12.050;2023-03-26T04:23:48;10.20;90.80
68480;DHT22;55469;48.934;12.050;2023-03-26T04:26:17;10.20;90.80
68480;DHT22;55469;48.934;12.050;2023-03-26T04:28:57;10.20;90.80
68480;DHT22;55469;48.934;12.050;2023-03-26T04:31:26;10.10;90.80
68480;DHT22;55469;48.934;12.050;2023-03-26T04:34:06;10.10;90.90
68480;DHT22;55469;48.934;12.050;2023-03-26T04:36:38;10.10;90.90
68480;DHT22;55469;48.934;12.050;2023-03-26T04:39:10;10.10;90.90
68480;DHT22;55469;48.934;12.050;2023-03-26T04:41:36;10.10;90.90
68480;DHT22;55469;48.934;12.050;2023-03-26T04:44:02;10.10;91.00
68480;DHT22;55469;48.934;12.050;2023-03-26T04:46:28;10.00;91.00
68480;DHT22;55469;48.934;12.050;2023-03-26T04:48:58;10.00;91.00
68480;DHT22;55469;48.934;12.050;2023-03-26T04:51:27;10.00;91.00
68480;DHT22;55469;48.934;12.050;2023-03-26T04:53:59;10.00;91.00
68480;DHT22;55469;48.934;12.050;2023-03-26T04:57:06;10.00;91.00
68480;DHT22;55469;48.934;12.050;2023-03-26T04:59:29;10.00;91.00
68480;DHT22;55469;48.934;12.050;2023-03-26T05:02:00;9.90;91.00
68480;DHT22;55469;48.934;12.050;2023-03-26T05:04:27;10.00;91.00
68480;DHT22;55469;48.934;12.050;2023-03-26T05:06:58;9.90;91.00
68480;DHT22;55469;48.934;12.050;2023-03-26T05:09:26;9.90;91.00
68480;DHT22;55469;48.934;12.050;2023-03-26T05:11:52;9.90;91.00
68480;DHT22;55469;48.934;12.050;2023-03-26T05:14:18;9.90;91.10
68480;DHT22;55469;48.934;12.050;2023-03-26T05:16:45;9.80;91.00
68480;DHT22;55469;48.934;12.050;2023-03-26T05:19:12;9.90;91.10
68480;DHT22;55469;48.934;12.050;2023-03-26T05:21:38;9.90;91.10
68480;DHT22;55469;48.934;12.050;2023-03-26T05:24:05;9.90;91.00
68480;DHT22;55469;48.934;12.050;2023-03-26T05:26:32;9.80;91.10
68480;DHT22;55469;48.934;12.050;2023-03-26T05:28:58;9.80;91.10
68480;DHT22;55469;48.934;12.050;2023-03-26T05:31:24;9.80;91.10
68480;DHT22;55469;48.934;12.050;2023-03-26T05:33:55;9.80;91.10
68480;DHT22;55469;48.934;12.050;2023-03-26T05:36:23;9.80;91.10
68480;DHT22;55469;48.934;12.050;2023-03-26T05:38:48;9.80;91.00
68480;DHT22;55469;48.934;12.050;2023-03-26T05:41:16;9.80;91.00
68480;DHT22;55469;48.934;12.050;2023-03-26T05:43:43;9.80;91.10
68480;DHT22;55469;48.934;12.050;2023-03-26T05:46:12;9.80;91.00
68480;DHT22;55469;48.934;12.050;2023-03-26T05:48:39;9.80;91.00
68480;DHT22;55469;48.934;12.050;2023-03-26T05:51:05;9.80;91.00
68480;DHT22;55469;48.934;12.050;2023-03-26T05:53:32;9.90;91.50
68480;DHT22;55469;48.934;12.050;2023-03-26T05:55:57;9.80;91.00
68480;DHT22;55469;48.934;12.050;2023-03-26T05:58:24;9.80;91.00
68480;DHT22;55469;48.934;12.050;2023-03-26T06:00:58;9.80;91.00
68480;DHT22;55469;48.934;12.050;2023-03-26T06:03:39;9.90;91.00
68480;DHT22;55469;48.934;12.050;2023-03-26T06:06:07;9.80;91.00
68480;DHT22;55469;48.934;12.050;2023-03-26T06:08:33;9.80;91.00
68480;DHT22;55469;48.934;12.050;2023-03-26T06:11:01;9.80;90.90
68480;DHT22;55469;48.934;12.050;2023-03-26T06:13:29;9.80;90.90
68480;DHT22;55469;48.934;12.050;2023-03-26T06:15:55;9.80;90.90
68480;DHT22;55469;48.934;12.050;2023-03-26T06:18:23;9.80;90.90
68480;DHT22;55469;48.934;12.050;2023-03-26T06:20:50;9.80;90.80
68480;DHT22;55469;48.934;12.050;2023-03-26T06:23:16;9.80;90.80
68480;DHT22;55469;48.934;12.050;2023-03-26T06:25:42;9.80;90.80
68480;DHT22;55469;48.934;12.050;2023-03-26T06:28:10;9.80;91.30
68480;DHT22;55469;48.934;12.050;2023-03-26T06:30:36;9.80;90.90
68480;DHT22;55469;48.934;12.050;2023-03-26T06:33:03;9.80;90.90
68480;DHT22;55469;48.934;12.050;2023-03-26T06:35:29;9.80;90.90
68480;DHT22;55469;48.934;12.050;2023-03-26T06:37:55;9.80;90.80
68480;DHT22;55469;48.934;12.050;2023-03-26T06:40:22;9.80;90.80
68480;DHT22;55469;48.934;12.050;2023-03-26T06:42:48;9.80;90.80
68480;DHT22;55469;48.934;12.050;2023-03-26T06:45:13;9.80;90.80
68480;DHT22;55469;48.934;12.050;2023-03-26T06:47:39;9.80;90.90
68480;DHT22;55469;48.934;12.050;2023-03-26T06:50:05;9.80;90.80
68480;DHT22;55469;48.934;12.050;2023-03-26T06:52:32;9.70;90.80
68480;DHT22;55469;48.934;12.050;2023-03-26T06:54:58;9.80;90.90
68480;DHT22;55469;48.934;12.050;2023-03-26T06:57:23;9.80;90.90
68480;DHT22;55469;48.934;12.050;2023-03-26T06:59:49;9.80;90.90
68480;DHT22;55469;48.934;12.050;2023-03-26T07:02:15;9.80;90.90
68480;DHT22;55469;48.934;12.050;2023-03-26T07:04:41;9.70;90.90
68480;DHT22;55469;48.934;12.050;2023-03-26T07:07:06;9.80;90.90
68480;DHT22;55469;48.934;12.050;2023-03-26T07:09:32;9.80;90.80
68480;DHT22;55469;48.934;12.050;2023-03-26T07:11:58;9.80;90.80
68480;DHT22;55469;48.934;12.050;2023-03-26T07:14:24;9.80;90.80
68480;DHT22;55469;48.934;12.050;2023-03-26T07:16:52;9.80;90.80
68480;DHT22;55469;48.934;12.050;2023-03-26T07:19:18;9.80;90.80
68480;DHT22;55469;48.934;12.050;2023-03-26T07:21:44;9.80;90.80
68480;DHT22;55469;48.934;12.050;2023-03-26T07:24:11;9.80;90.80
68480;DHT22;55469;48.934;12.050;2023-03-26T07:40:36;9.80;90.80
68480;DHT22;55469;48.934;12.050;2023-03-26T07:43:21;9.80;90.80
68480;DHT22;55469;48.934;12.050;2023-03-26T07:45:53;9.70;90.80
68480;DHT22;55469;48.934;12.050;2023-03-26T07:48:23;9.70;90.80
68480;DHT22;55469;48.934;12.050;2023-03-26T07:50:54;9.70;90.90
68480;DHT22;55469;48.934;12.050;2023-03-26T07:53:21;9.70;90.80
68480;DHT22;55469;48.934;12.050;2023-03-26T07:56:13;9.80;90.80
68480;DHT22;55469;48.934;12.050;2023-03-26T07:59:14;9.80;90.80
68480;DHT22;55469;48.934;12.050;2023-03-26T08:04:50;9.70;90.80
68480;DHT22;55469;48.934;12.050;2023-03-26T08:08:10;9.70;90.80
68480;DHT22;55469;48.934;12.050;2023-03-26T08:16:52;9.80;90.90
68480;DHT22;55469;48.934;12.050;2023-03-26T08:22:33;9.70;90.80
68480;DHT22;55469;48.934;12.050;2023-03-26T08:28:10;9.80;90.90
68480;DHT22;55469;48.934;12.050;2023-03-26T08:30:40;9.80;90.90
68480;DHT22;55469;48.934;12.050;2023-03-26T08:33:18;9.80;90.80
68480;DHT22;55469;48.934;12.050;2023-03-26T08:35:45;9.80;90.80
68480;DHT22;55469;48.934;12.050;2023-03-26T08:38:16;9.80;90.80
68480;DHT22;55469;48.934;12.050;2023-03-26T08:43:54;9.80;91.00
68480;DHT22;55469;48.934;12.050;2023-03-26T09:07:40;10.80;90.30
68480;DHT22;55469;48.934;12.050;2023-03-26T09:10:49;10.90;90.20
68480;DHT22;55469;48.934;12.050;2023-03-26T09:17:05;11.10;90.20
68480;DHT22;55469;48.934;12.050;2023-03-26T09:20:07;11.10;90.20
68480;DHT22;55469;48.934;12.050;2023-03-26T09:26:15;11.30;90.00
68480;DHT22;55469;48.934;12.050;2023-03-26T09:31:53;11.50;89.90
68480;DHT22;55469;48.934;12.050;2023-03-26T09:34:28;11.60;89.80
68480;DHT22;55469;48.934;12.050;2023-03-26T09:42:45;11.80;89.00
68480;DHT22;55469;48.934;12.050;2023-03-26T09:53:58;11.90;88.70
68480;DHT22;55469;48.934;12.050;2023-03-26T10:02:57;12.10;88.60
68480;DHT22;55469;48.934;12.050;2023-03-26T10:13:50;12.20;88.20
68480;DHT22;55469;48.934;12.050;2023-03-26T10:20:01;12.30;88.50
68480;DHT22;55469;48.934;12.050;2023-03-26T10:40:57;11.80;89.10
68480;DHT22;55469;48.934;12.050;2023-03-26T10:44:04;11.60;89.70
68480;DHT22;55469;48.934;12.050;2023-03-26T10:52:22;11.50;89.70
68480;DHT22;55469;48.934;12.050;2023-03-26T10:54:54;11.40;90.10
68480;DHT22;55469;48.934;12.050;2023-03-26T10:57:39;11.40;90.20
68480;DHT22;55469;48.934;12.050;2023-03-26T11:00:19;11.40;90.20
68480;DHT22;55469;48.934;12.050;2023-03-26T11:09:30;11.30;90.40
68480;DHT22;55469;48.934;12.050;2023-03-26T11:12:08;11.20;90.40
68480;DHT22;55469;48.934;12.050;2023-03-26T11:17:21;11.20;90.40
68480;DHT22;55469;48.934;12.050;2023-03-26T11:19:57;11.10;90.40
68480;DHT22;55469;48.934;12.050;2023-03-26T11:25:30;11.10;90.40
68480;DHT22;55469;48.934;12.050;2023-03-26T11:31:03;11.10;90.50
68480;DHT22;55469;48.934;12.050;2023-03-26T11:33:43;11.10;90.50
68480;DHT22;55469;48.934;12.050;2023-03-26T11:36:18;11.10;91.00
68480;DHT22;55469;48.934;12.050;2023-03-26T11:38:49;11.00;90.50
68480;DHT22;55469;48.934;12.050;2023-03-26T11:41:21;11.00;90.50
68480;DHT22;55469;48.934;12.050;2023-03-26T11:44:19;11.00;90.50
68480;DHT22;55469;48.934;12.050;2023-03-26T11:46:50;11.00;90.60
68480;DHT22;55469;48.934;12.050;2023-03-26T11:49:19;10.90;90.60
68480;DHT22;55469;48.934;12.050;2023-03-26T11:51:46;10.90;90.60
68480;DHT22;55469;48.934;12.050;2023-03-26T11:54:13;10.90;90.60
68480;DHT22;55469;48.934;12.050;2023-03-26T11:57:05;10.90;90.60
68480;DHT22;55469;48.934;12.050;2023-03-26T11:59:39;11.00;90.60
68480;DHT22;55469;48.934;12.050;2023-03-26T12:04:44;10.90;90.70
68480;DHT22;55469;48.934;12.050;2023-03-26T12:07:16;10.90;90.70
68480;DHT22;55469;48.934;12.050;2023-03-26T12:09:55;10.90;90.70
68480;DHT22;55469;48.934;12.050;2023-03-26T12:12:36;10.90;90.70
68480;DHT22;55469;48.934;12.050;2023-03-26T12:15:11;10.90;90.70
68480;DHT22;55469;48.934;12.050;2023-03-26T12:17:38;10.80;90.70
68480;DHT22;55469;48.934;12.050;2023-03-26T12:23:01;10.80;90.70
68480;DHT22;55469;48.934;12.050;2023-03-26T12:25:38;10.80;90.70
68480;DHT22;55469;48.934;12.050;2023-03-26T12:28:27;10.80;90.80
68480;DHT22;55469;48.934;12.050;2023-03-26T12:31:03;10.80;90.70
68480;DHT22;55469;48.934;12.050;2023-03-26T12:33:31;10.80;90.80
68480;DHT22;55469;48.934;12.050;2023-03-26T12:36:00;10.80;90.80
68480;DHT22;55469;48.934;12.050;2023-03-26T12:38:41;10.50;91.40
68480;DHT22;55469;48.934;12.050;2023-03-26T12:41:12;10.40;91.70
68480;DHT22;55469;48.934;12.050;2023-03-26T12:43:42;10.60;91.50
68480;DHT22;55469;48.934;12.050;2023-03-26T12:46:32;10.70;91.30
68480;DHT22;55469;48.934;12.050;2023-03-26T12:49:00;10.70;91.10
68480;DHT22;55469;48.934;12.050;2023-03-26T12:51:52;10.70;91.10
68480;DHT22;55469;48.934;12.050;2023-03-26T12:54:42;10.70;91.00
68480;DHT22;55469;48.934;12.050;2023-03-26T12:57:26;10.80;91.40
68480;DHT22;55469;48.934;12.050;2023-03-26T13:00:35;10.60;91.70
68480;DHT22;55469;48.934;12.050;2023-03-26T13:06:05;10.40;92.30
68480;DHT22;55469;48.934;12.050;2023-03-26T13:11:58;10.40;92.60
68480;DHT22;55469;48.934;12.050;2023-03-26T13:15:01;10.40;93.30
68480;DHT22;55469;48.934;12.050;2023-03-26T13:28:39;10.70;92.20
68480;DHT22;55469;48.934;12.050;2023-03-26T13:31:18;10.80;92.10
68480;DHT22;55469;48.934;12.050;2023-03-26T13:34:13;10.80;92.00
68480;DHT22;55469;48.934;12.050;2023-03-26T13:39:43;10.80;91.80
68480;DHT22;55469;48.934;12.050;2023-03-26T13:42:43;10.80;91.80
68480;DHT22;55469;48.934;12.050;2023-03-26T13:45:45;10.90;91.70
68480;DHT22;55469;48.934;12.050;2023-03-26T13:48:29;10.80;91.60
68480;DHT22;55469;48.934;12.050;2023-03-26T13:51:03;10.90;91.60
68480;DHT22;55469;48.934;12.050;2023-03-26T13:53:50;10.80;91.60
68480;DHT22;55469;48.934;12.050;2023-03-26T13:56:20;10.90;91.60
68480;DHT22;55469;48.934;12.050;2023-03-26T13:58:56;10.90;91.50
68480;DHT22;55469;48.934;12.050;2023-03-26T14:01:31;10.90;91.50
68480;DHT22;55469;48.934;12.050;2023-03-26T14:04:12;10.90;91.50
68480;DHT22;55469;48.934;12.050;2023-03-26T14:07:17;10.90;91.50
68480;DHT22;55469;48.934;12.050;2023-03-26T14:10:11;10.90;91.40
68480;DHT22;55469;48.934;12.050;2023-03-26T14:12:53;10.90;91.40
68480;DHT22;55469;48.934;12.050;2023-03-26T14:15:54;10.90;91.90
68480;DHT22;55469;48.934;12.050;2023-03-26T14:32:41;10.90;91.20
68480;DHT22;55469;48.934;12.050;2023-03-26T14:35:40;11.00;91.30
68480;DHT22;55469;48.934;12.050;2023-03-26T14:41:24;11.00;91.20
68480;DHT22;55469;48.934;12.050;2023-03-26T14:47:15;11.00;91.20
68480;DHT22;55469;48.934;12.050;2023-03-26T14:52:49;11.00;91.20
68480;DHT22;55469;48.934;12.050;2023-03-26T14:55:33;11.00;91.10
68480;DHT22;55469;48.934;12.050;2023-03-26T15:04:47;11.00;91.10
68480;DHT22;55469;48.934;12.050;2023-03-26T15:17:20;11.10;91.10
68480;DHT22;55469;48.934;12.050;2023-03-26T15:28:33;11.10;91.00
68480;DHT22;55469;48.934;12.050;2023-03-26T15:31:26;11.10;90.90
68480;DHT22;55469;48.934;12.050;2023-03-26T15:43:13;11.00;91.00
68480;DHT22;55469;48.934;12.050;2023-03-26T15:45:44;11.00;91.00
68480;DHT22;55469;48.934;12.050;2023-03-26T15:54:05;11.10;90.90
68480;DHT22;55469;48.934;12.050;2023-03-26T15:59:40;11.10;90.80
68480;DHT22;55469;48.934;12.050;2023-03-26T16:05:29;11.20;90.80
68480;DHT22;55469;48.934;12.050;2023-03-26T16:10:55;11.20;90.70
68480;DHT22;55469;48.934;12.050;2023-03-26T16:24:10;11.50;90.10
68480;DHT22;55469;48.934;12.050;2023-03-26T16:29:17;11.60;90.00
68480;DHT22;55469;48.934;12.050;2023-03-26T16:32:22;11.70;90.00
68480;DHT22;55469;48.934;12.050;2023-03-26T16:34:57;11.70;89.70
68480;DHT22;55469;48.934;12.050;2023-03-26T16:43:17;11.60;89.90
68480;DHT22;55469;48.934;12.050;2023-03-26T16:54:34;11.50;90.10
68480;DHT22;55469;48.934;12.050;2023-03-26T16:57:17;11.50;90.20
68480;DHT22;55469;48.934;12.050;2023-03-26T17:03:16;11.40;90.30
68480;DHT22;55469;48.934;12.050;2023-03-26T17:08:43;11.30;90.30
68480;DHT22;55469;48.934;12.050;2023-03-26T17:14:24;11.30;90.40
68480;DHT22;55469;48.934;12.050;2023-03-26T17:19:45;11.30;90.50
68480;DHT22;55469;48.934;12.050;2023-03-26T17:22:46;11.20;90.50
68480;DHT22;55469;48.934;12.050;2023-03-26T17:25:35;11.20;90.50
68480;DHT22;55469;48.934;12.050;2023-03-26T17:31:57;11.20;90.60
68480;DHT22;55469;48.934;12.050;2023-03-26T17:37:31;11.20;90.60
68480;DHT22;55469;48.934;12.050;2023-03-26T17:42:35;11.10;90.70
68480;DHT22;55469;48.934;12.050;2023-03-26T17:45:16;11.10;90.70
68480;DHT22;55469;48.934;12.050;2023-03-26T17:48:23;11.10;90.70
68480;DHT22;55469;48.934;12.050;2023-03-26T17:51:16;11.10;90.70
68480;DHT22;55469;48.934;12.050;2023-03-26T17:53:51;11.10;90.70
68480;DHT22;55469;48.934;12.050;2023-03-26T17:56:23;11.10;90.70
68480;DHT22;55469;48.934;12.050;2023-03-26T17:58:53;11.00;90.70
68480;DHT22;55469;48.934;12.050;2023-03-26T18:01:29;11.00;90.70
68480;DHT22;55469;48.934;12.050;2023-03-26T18:04:01;11.10;90.70
68480;DHT22;55469;48.934;12.050;2023-03-26T18:15:27;11.00;90.80
68480;DHT22;55469;48.934;12.050;2023-03-26T18:18:30;11.00;90.80
68480;DHT22;55469;48.934;12.050;2023-03-26T18:20:59;11.00;90.70
68480;DHT22;55469;48.934;12.050;2023-03-26T18:23:39;10.90;90.80
68480;DHT22;55469;48.934;12.050;2023-03-26T18:28:42;10.90;90.70
68480;DHT22;55469;48.934;12.050;2023-03-26T18:31:24;11.00;90.70
68480;DHT22;55469;48.934;12.050;2023-03-26T18:33:55;10.90;90.70
68480;DHT22;55469;48.934;12.050;2023-03-26T18:36:25;10.90;90.80
68480;DHT22;55469;48.934;12.050;2023-03-26T18:38:58;10.90;90.70
68480;DHT22;55469;48.934;12.050;2023-03-26T18:41:32;10.90;90.60
68480;DHT22;55469;48.934;12.050;2023-03-26T18:44:06;10.90;90.70
68480;DHT22;55469;48.934;12.050;2023-03-26T18:46:37;10.80;90.70
68480;DHT22;55469;48.934;12.050;2023-03-26T18:49:03;10.80;90.70
68480;DHT22;55469;48.934;12.050;2023-03-26T18:51:30;10.80;90.80
68480;DHT22;55469;48.934;12.050;2023-03-26T18:53:58;10.80;90.80
68480;DHT22;55469;48.934;12.050;2023-03-26T18:56:30;10.80;90.80
68480;DHT22;55469;48.934;12.050;2023-03-26T18:59:02;10.80;90.90
68480;DHT22;55469;48.934;12.050;2023-03-26T19:01:31;10.70;90.80
68480;DHT22;55469;48.934;12.050;2023-03-26T19:04:02;10.70;90.90
68480;DHT22;55469;48.934;12.050;2023-03-26T19:06:31;10.70;91.00
68480;DHT22;55469;48.934;12.050;2023-03-26T19:09:04;10.70;91.00
68480;DHT22;55469;48.934;12.050;2023-03-26T19:11:31;10.70;91.50
68480;DHT22;55469;48.934;12.050;2023-03-26T19:14:07;10.60;91.00
68480;DHT22;55469;48.934;12.050;2023-03-26T19:16:39;10.70;91.10
68480;DHT22;55469;48.934;12.050;2023-03-26T19:19:11;10.60;91.10
68480;DHT22;55469;48.934;12.050;2023-03-26T19:21:43;10.60;91.20
68480;DHT22;55469;48.934;12.050;2023-03-26T19:24:09;10.60;91.20
68480;DHT22;55469;48.934;12.050;2023-03-26T19:26:36;10.60;91.20
68480;DHT22;55469;48.934;12.050;2023-03-26T19:29:02;10.60;91.30
68480;DHT22;55469;48.934;12.050;2023-03-26T19:31:37;10.60;91.30
68480;DHT22;55469;48.934;12.050;2023-03-26T19:36:59;10.50;91.30
68480;DHT22;55469;48.934;12.050;2023-03-26T19:39:41;10.50;91.40
68480;DHT22;55469;48.934;12.050;2023-03-26T19:42:37;10.50;91.90
68480;DHT22;55469;48.934;12.050;2023-03-26T19:45:03;10.50;91.40
68480;DHT22;55469;48.934;12.050;2023-03-26T19:47:38;10.50;91.40
68480;DHT22;55469;48.934;12.050;2023-03-26T19:50:21;10.40;91.40
68480;DHT22;55469;48.934;12.050;2023-03-26T19:55:49;10.40;91.40
68480;DHT22;55469;48.934;12.050;2023-03-26T19:58:17;10.40;91.50
68480;DHT22;55469;48.934;12.050;2023-03-26T20:00:44;10.40;91.50
68480;DHT22;55469;48.934;12.050;2023-03-26T20:03:10;10.40;91.60
68480;DHT22;55469;48.934;12.050;2023-03-26T20:05:36;10.40;91.60
68480;DHT22;55469;48.934;12.050;2023-03-26T20:08:12;10.40;91.60
68480;DHT22;55469;48.934;12.050;2023-03-26T20:10:39;10.40;91.60
68480;DHT22;55469;48.934;12.050;2023-03-26T20:13:14;10.40;91.60
68480;DHT22;55469;48.934;12.050;2023-03-26T20:15:43;10.40;91.70
68480;DHT22;55469;48.934;12.050;2023-03-26T20:18:12;10.30;91.70
68480;DHT22;55469;48.934;12.050;2023-03-26T20:20:38;10.30;91.60
68480;DHT22;55469;48.934;12.050;2023-03-26T20:23:11;10.30;91.70
68480;DHT22;55469;48.934;12.050;2023-03-26T20:25:48;10.30;91.70
68480;DHT22;55469;48.934;12.050;2023-03-26T20:28:17;10.30;91.70
68480;DHT22;55469;48.934;12.050;2023-03-26T20:30:47;10.30;91.70
68480;DHT22;55469;48.934;12.050;2023-03-26T20:33:20;10.30;91.80
68480;DHT22;55469;48.934;12.050;2023-03-26T20:35:51;10.30;91.80
68480;DHT22;55469;48.934;12.050;2023-03-26T20:38:17;10.20;91.80
68480;DHT22;55469;48.934;12.050;2023-03-26T20:40:43;10.20;91.80
68480;DHT22;55469;48.934;12.050;2023-03-26T20:43:12;10.20;91.80
68480;DHT22;55469;48.934;12.050;2023-03-26T20:45:40;10.20;91.80
68480;DHT22;55469;48.934;12.050;2023-03-26T20:48:07;10.20;91.80
68480;DHT22;55469;48.934;12.050;2023-03-26T20:50:35;10.20;91.80
68480;DHT22;55469;48.934;12.050;2023-03-26T20:53:02;10.20;91.80
68480;DHT22;55469;48.934;12.050;2023-03-26T20:55:28;10.20;91.90
68480;DHT22;55469;48.934;12.050;2023-03-26T20:57:54;10.10;91.80
68480;DHT22;55469;48.934;12.050;2023-03-26T21:00:20;10.10;91.90
68480;DHT22;55469;48.934;12.050;2023-03-26T21:02:53;10.10;92.00
68480;DHT22;55469;48.934;12.050;2023-03-26T21:05:24;10.10;92.00
68480;DHT22;55469;48.934;12.050;2023-03-26T21:07:57;10.10;91.90
68480;DHT22;55469;48.934;12.050;2023-03-26T21:10:25;10.10;91.90
68480;DHT22;55469;48.934;12.050;2023-03-26T21:15:25;10.10;92.00
68480;DHT22;55469;48.934;12.050;2023-03-26T21:17:52;10.00;92.00
68480;DHT22;55469;48.934;12.050;2023-03-26T21:20:23;10.10;92.00
68480;DHT22;55469;48.934;12.050;2023-03-26T21:25:59;10.00;92.00